ENZV/SVG METAR and TAF weather

Enter ICAO airport designator
Station Type Date Time Source
ENZV METAR 2018/10/16 20:50 UTC NOAA

ENZV 162050Z 15015KT 7000 FEW010 BKN018 12/09 Q1012


Station Type Date Time Source
ENZV Decoded METAR 2018/10/16 20:50 UTC NOAA

Stavanger / Sola, Norway (ENZV) 58-53N 005-38E 9M
Oct 16, 2018 - 04:50 PM EDT / 2018.10.16 2050 UTC
Wind: from the SSE (150 degrees) at 17 MPH (15 KT):0
Visibility: 4 mile(s):0
Sky conditions: mostly cloudy
Temperature: 53 F (12 C)
Dew Point: 48 F (9 C)
Relative Humidity: 81%
Pressure (altimeter): 29.88 in. Hg (1012 hPa)
ob: ENZV 162050Z 15015KT 7000 FEW010 BKN018 12/09 Q1012
cycle: 21

Station Type Date Time Source
ENZV TAF 2018/10/16 18:57 UTC NOAA

TAF ENZV 161700Z 1618/1718 16012KT 9999 FEW020 BKN040
TEMPO 1618/1703 16018G28KT
BECMG 1618/1621 BKN010
BECMG 1621/1623 4000 BR -DZ BKN005 PROB40 1623/1708 0500 FG VV002
BECMG 1709/1711 24012KT 9000 BKN012
BECMG 1714/1717 30008KT FEW012 SCT020


Example: see airport list